sensor_id;sensor_type;location;lat;lon;timestamp;P1;durP1;ratioP1;P2;durP2;ratioP2
52888;SDS011;41413;52.770;6.892;2023-09-08T00:00:19;1999.90;;;999.90;;
52888;SDS011;41413;52.770;6.892;2023-09-08T00:02:46;1999.90;;;999.90;;
52888;SDS011;41413;52.770;6.892;2023-09-08T00:05:13;1999.90;;;999.90;;
52888;SDS011;41413;52.770;6.892;2023-09-08T00:07:39;1999.90;;;999.90;;
52888;SDS011;41413;52.770;6.892;2023-09-08T00:10:06;1999.90;;;999.90;;
52888;SDS011;41413;52.770;6.892;2023-09-08T00:12:33;1999.90;;;999.90;;
52888;SDS011;41413;52.770;6.892;2023-09-08T00:15:00;1999.90;;;999.90;;
52888;SDS011;41413;52.770;6.892;2023-09-08T00:17:27;1999.90;;;999.90;;
52888;SDS011;41413;52.770;6.892;2023-09-08T00:19:54;1999.90;;;999.90;;
52888;SDS011;41413;52.770;6.892;2023-09-08T00:22:20;1999.90;;;999.90;;
52888;SDS011;41413;52.770;6.892;2023-09-08T00:24:47;1999.90;;;999.90;;
52888;SDS011;41413;52.770;6.892;2023-09-08T00:27:14;1999.90;;;999.90;;
52888;SDS011;41413;52.770;6.892;2023-09-08T00:29:41;1999.90;;;999.90;;
52888;SDS011;41413;52.770;6.892;2023-09-08T00:32:08;1999.90;;;999.90;;
52888;SDS011;41413;52.770;6.892;2023-09-08T00:34:34;1999.90;;;999.90;;
52888;SDS011;41413;52.770;6.892;2023-09-08T00:37:01;1999.90;;;999.90;;
52888;SDS011;41413;52.770;6.892;2023-09-08T00:39:36;1999.90;;;999.90;;
52888;SDS011;41413;52.770;6.892;2023-09-08T00:42:03;1999.90;;;999.90;;
52888;SDS011;41413;52.770;6.892;2023-09-08T00:44:31;1999.90;;;999.90;;
52888;SDS011;41413;52.770;6.892;2023-09-08T00:46:57;1999.90;;;999.90;;
52888;SDS011;41413;52.770;6.892;2023-09-08T00:49:24;1999.90;;;999.90;;
52888;SDS011;41413;52.770;6.892;2023-09-08T00:51:51;1999.90;;;999.90;;
52888;SDS011;41413;52.770;6.892;2023-09-08T00:54:18;1999.90;;;999.90;;
52888;SDS011;41413;52.770;6.892;2023-09-08T00:56:45;1999.90;;;999.90;;
52888;SDS011;41413;52.770;6.892;2023-09-08T00:59:14;1999.90;;;999.90;;
52888;SDS011;41413;52.770;6.892;2023-09-08T01:01:42;1999.90;;;999.90;;
52888;SDS011;41413;52.770;6.892;2023-09-08T01:04:08;1999.90;;;999.90;;
52888;SDS011;41413;52.770;6.892;2023-09-08T01:06:35;1999.90;;;999.90;;
52888;SDS011;41413;52.770;6.892;2023-09-08T01:09:03;1999.90;;;999.90;;
52888;SDS011;41413;52.770;6.892;2023-09-08T01:11:30;1999.90;;;999.90;;
52888;SDS011;41413;52.770;6.892;2023-09-08T01:13:58;1999.90;;;999.90;;
52888;SDS011;41413;52.770;6.892;2023-09-08T01:16:24;1999.90;;;999.90;;
52888;SDS011;41413;52.770;6.892;2023-09-08T01:18:51;1999.90;;;999.90;;
52888;SDS011;41413;52.770;6.892;2023-09-08T01:26:51;1999.90;;;999.90;;
52888;SDS011;41413;52.770;6.892;2023-09-08T01:29:19;1999.90;;;999.90;;
52888;SDS011;41413;52.770;6.892;2023-09-08T01:31:49;1999.90;;;999.90;;
52888;SDS011;41413;52.770;6.892;2023-09-08T01:34:17;1999.90;;;999.90;;
52888;SDS011;41413;52.770;6.892;2023-09-08T01:36:45;1999.90;;;999.90;;
52888;SDS011;41413;52.770;6.892;2023-09-08T01:39:12;1999.90;;;999.90;;
52888;SDS011;41413;52.770;6.892;2023-09-08T01:41:38;1999.90;;;999.90;;
52888;SDS011;41413;52.770;6.892;2023-09-08T01:44:05;1999.90;;;999.90;;
52888;SDS011;41413;52.770;6.892;2023-09-08T01:46:36;1999.90;;;999.90;;
52888;SDS011;41413;52.770;6.892;2023-09-08T01:49:04;1999.90;;;999.90;;
52888;SDS011;41413;52.770;6.892;2023-09-08T01:51:31;1999.90;;;999.90;;
52888;SDS011;41413;52.770;6.892;2023-09-08T01:53:58;1999.90;;;999.90;;
52888;SDS011;41413;52.770;6.892;2023-09-08T01:56:25;1999.90;;;999.90;;
52888;SDS011;41413;52.770;6.892;2023-09-08T01:58:52;1999.90;;;999.90;;
52888;SDS011;41413;52.770;6.892;2023-09-08T02:01:19;1999.90;;;999.90;;
52888;SDS011;41413;52.770;6.892;2023-09-08T02:03:46;1999.90;;;999.90;;
52888;SDS011;41413;52.770;6.892;2023-09-08T02:06:12;1999.90;;;999.90;;
52888;SDS011;41413;52.770;6.892;2023-09-08T02:08:39;1999.90;;;999.90;;
52888;SDS011;41413;52.770;6.892;2023-09-08T02:11:06;1999.90;;;999.90;;
52888;SDS011;41413;52.770;6.892;2023-09-08T02:13:32;1999.90;;;999.90;;
52888;SDS011;41413;52.770;6.892;2023-09-08T02:15:59;1999.90;;;999.90;;
52888;SDS011;41413;52.770;6.892;2023-09-08T02:18:26;1999.90;;;999.90;;
52888;SDS011;41413;52.770;6.892;2023-09-08T02:20:54;1999.90;;;999.90;;
52888;SDS011;41413;52.770;6.892;2023-09-08T02:23:21;1999.90;;;999.90;;
52888;SDS011;41413;52.770;6.892;2023-09-08T02:25:47;1999.90;;;999.90;;
52888;SDS011;41413;52.770;6.892;2023-09-08T02:28:14;1999.90;;;999.90;;
52888;SDS011;41413;52.770;6.892;2023-09-08T02:30:41;1999.90;;;999.90;;
52888;SDS011;41413;52.770;6.892;2023-09-08T02:33:08;1999.90;;;999.90;;
52888;SDS011;41413;52.770;6.892;2023-09-08T02:35:38;1999.90;;;999.90;;
52888;SDS011;41413;52.770;6.892;2023-09-08T02:38:05;1999.90;;;999.90;;
52888;SDS011;41413;52.770;6.892;2023-09-08T02:40:32;1999.90;;;999.90;;
52888;SDS011;41413;52.770;6.892;2023-09-08T02:43:01;1999.90;;;999.90;;
52888;SDS011;41413;52.770;6.892;2023-09-08T02:45:28;1999.90;;;999.90;;
52888;SDS011;41413;52.770;6.892;2023-09-08T02:47:55;1999.90;;;999.90;;
52888;SDS011;41413;52.770;6.892;2023-09-08T02:50:22;1999.90;;;999.90;;
52888;SDS011;41413;52.770;6.892;2023-09-08T02:52:49;1999.90;;;999.90;;
52888;SDS011;41413;52.770;6.892;2023-09-08T02:55:16;1999.90;;;999.90;;
52888;SDS011;41413;52.770;6.892;2023-09-08T02:57:43;1999.90;;;999.90;;
52888;SDS011;41413;52.770;6.892;2023-09-08T03:00:09;1999.90;;;999.90;;
52888;SDS011;41413;52.770;6.892;2023-09-08T03:02:36;1999.90;;;999.90;;
52888;SDS011;41413;52.770;6.892;2023-09-08T03:05:03;1999.90;;;999.90;;
52888;SDS011;41413;52.770;6.892;2023-09-08T03:07:31;1999.90;;;999.90;;
52888;SDS011;41413;52.770;6.892;2023-09-08T03:10:00;1999.90;;;999.90;;
52888;SDS011;41413;52.770;6.892;2023-09-08T03:12:26;1999.90;;;999.90;;
52888;SDS011;41413;52.770;6.892;2023-09-08T03:14:54;1999.90;;;999.90;;
52888;SDS011;41413;52.770;6.892;2023-09-08T03:17:21;1999.90;;;999.90;;
52888;SDS011;41413;52.770;6.892;2023-09-08T03:19:47;1999.90;;;999.90;;
52888;SDS011;41413;52.770;6.892;2023-09-08T03:22:14;1999.90;;;999.90;;
52888;SDS011;41413;52.770;6.892;2023-09-08T03:24:41;1999.90;;;999.90;;
52888;SDS011;41413;52.770;6.892;2023-09-08T03:27:08;1999.90;;;999.90;;
52888;SDS011;41413;52.770;6.892;2023-09-08T03:29:35;1999.90;;;999.90;;
52888;SDS011;41413;52.770;6.892;2023-09-08T03:32:01;1999.90;;;999.90;;
52888;SDS011;41413;52.770;6.892;2023-09-08T03:34:29;1999.90;;;999.90;;
52888;SDS011;41413;52.770;6.892;2023-09-08T03:36:56;1999.90;;;999.90;;
52888;SDS011;41413;52.770;6.892;2023-09-08T03:39:23;1999.90;;;999.90;;
52888;SDS011;41413;52.770;6.892;2023-09-08T03:41:49;1999.90;;;999.90;;
52888;SDS011;41413;52.770;6.892;2023-09-08T03:44:16;1999.90;;;999.90;;
52888;SDS011;41413;52.770;6.892;2023-09-08T03:46:43;1999.90;;;999.90;;
52888;SDS011;41413;52.770;6.892;2023-09-08T03:49:10;1999.90;;;999.90;;
52888;SDS011;41413;52.770;6.892;2023-09-08T03:51:36;1999.90;;;999.90;;
52888;SDS011;41413;52.770;6.892;2023-09-08T03:54:03;1999.90;;;999.90;;
52888;SDS011;41413;52.770;6.892;2023-09-08T03:56:30;1999.90;;;999.90;;
52888;SDS011;41413;52.770;6.892;2023-09-08T03:58:57;1999.90;;;999.90;;
52888;SDS011;41413;52.770;6.892;2023-09-08T04:01:24;1999.90;;;999.90;;
52888;SDS011;41413;52.770;6.892;2023-09-08T04:03:50;1999.90;;;999.90;;
52888;SDS011;41413;52.770;6.892;2023-09-08T04:06:17;1999.90;;;999.90;;
52888;SDS011;41413;52.770;6.892;2023-09-08T04:08:44;1999.90;;;999.90;;
52888;SDS011;41413;52.770;6.892;2023-09-08T04:11:11;1999.90;;;999.90;;
52888;SDS011;41413;52.770;6.892;2023-09-08T04:13:37;1999.90;;;999.90;;
52888;SDS011;41413;52.770;6.892;2023-09-08T04:16:04;1999.90;;;999.90;;
52888;SDS011;41413;52.770;6.892;2023-09-08T04:18:31;1999.90;;;999.90;;
52888;SDS011;41413;52.770;6.892;2023-09-08T04:20:58;1999.90;;;999.90;;
52888;SDS011;41413;52.770;6.892;2023-09-08T04:23:25;1999.90;;;999.90;;
52888;SDS011;41413;52.770;6.892;2023-09-08T04:25:51;1999.90;;;999.90;;
52888;SDS011;41413;52.770;6.892;2023-09-08T04:28:18;1999.90;;;999.90;;
52888;SDS011;41413;52.770;6.892;2023-09-08T04:30:45;1999.90;;;999.90;;
52888;SDS011;41413;52.770;6.892;2023-09-08T04:33:12;1999.90;;;999.90;;
52888;SDS011;41413;52.770;6.892;2023-09-08T04:35:39;1999.90;;;999.90;;
52888;SDS011;41413;52.770;6.892;2023-09-08T04:38:06;1999.90;;;999.90;;
52888;SDS011;41413;52.770;6.892;2023-09-08T04:40:33;1999.90;;;999.90;;
52888;SDS011;41413;52.770;6.892;2023-09-08T04:43:00;1999.90;;;999.90;;
52888;SDS011;41413;52.770;6.892;2023-09-08T04:45:27;1999.90;;;999.90;;
52888;SDS011;41413;52.770;6.892;2023-09-08T04:47:54;1999.90;;;999.90;;
52888;SDS011;41413;52.770;6.892;2023-09-08T04:50:21;1999.90;;;999.90;;
52888;SDS011;41413;52.770;6.892;2023-09-08T04:52:48;1999.90;;;999.90;;
52888;SDS011;41413;52.770;6.892;2023-09-08T04:55:14;1999.90;;;999.90;;
52888;SDS011;41413;52.770;6.892;2023-09-08T04:57:41;1999.90;;;999.90;;
52888;SDS011;41413;52.770;6.892;2023-09-08T05:00:08;1999.90;;;999.90;;
52888;SDS011;41413;52.770;6.892;2023-09-08T05:02:35;1999.90;;;999.90;;
52888;SDS011;41413;52.770;6.892;2023-09-08T05:05:02;1999.90;;;999.90;;
52888;SDS011;41413;52.770;6.892;2023-09-08T05:07:29;1999.90;;;999.90;;
52888;SDS011;41413;52.770;6.892;2023-09-08T05:09:56;1999.90;;;999.90;;
52888;SDS011;41413;52.770;6.892;2023-09-08T05:12:23;1999.90;;;999.90;;
52888;SDS011;41413;52.770;6.892;2023-09-08T05:14:50;1999.90;;;999.90;;
52888;SDS011;41413;52.770;6.892;2023-09-08T05:17:25;1999.90;;;999.90;;
52888;SDS011;41413;52.770;6.892;2023-09-08T05:19:52;1999.90;;;999.90;;
52888;SDS011;41413;52.770;6.892;2023-09-08T05:22:19;1999.90;;;999.90;;
52888;SDS011;41413;52.770;6.892;2023-09-08T05:24:46;1999.90;;;999.90;;
52888;SDS011;41413;52.770;6.892;2023-09-08T05:27:12;1999.90;;;999.90;;
52888;SDS011;41413;52.770;6.892;2023-09-08T05:29:39;1999.90;;;999.90;;
52888;SDS011;41413;52.770;6.892;2023-09-08T05:32:06;1999.90;;;999.90;;
52888;SDS011;41413;52.770;6.892;2023-09-08T05:34:33;1999.90;;;999.90;;
52888;SDS011;41413;52.770;6.892;2023-09-08T05:36:59;1999.90;;;999.90;;
52888;SDS011;41413;52.770;6.892;2023-09-08T05:39:26;1999.90;;;999.90;;
52888;SDS011;41413;52.770;6.892;2023-09-08T05:41:53;1999.90;;;999.90;;
52888;SDS011;41413;52.770;6.892;2023-09-08T05:44:20;1999.90;;;999.90;;
52888;SDS011;41413;52.770;6.892;2023-09-08T05:46:47;1999.90;;;999.90;;
52888;SDS011;41413;52.770;6.892;2023-09-08T05:49:14;1999.90;;;999.90;;
52888;SDS011;41413;52.770;6.892;2023-09-08T05:51:41;1999.90;;;999.90;;
52888;SDS011;41413;52.770;6.892;2023-09-08T05:54:07;1999.90;;;999.90;;
52888;SDS011;41413;52.770;6.892;2023-09-08T05:56:36;1999.90;;;999.90;;
52888;SDS011;41413;52.770;6.892;2023-09-08T05:59:03;1999.90;;;999.90;;
52888;SDS011;41413;52.770;6.892;2023-09-08T06:01:30;1999.90;;;999.90;;
52888;SDS011;41413;52.770;6.892;2023-09-08T06:03:59;1999.90;;;999.90;;
52888;SDS011;41413;52.770;6.892;2023-09-08T06:06:26;1999.90;;;999.90;;
52888;SDS011;41413;52.770;6.892;2023-09-08T06:08:55;1999.90;;;999.90;;
52888;SDS011;41413;52.770;6.892;2023-09-08T06:11:22;1999.90;;;999.90;;
52888;SDS011;41413;52.770;6.892;2023-09-08T06:13:48;1999.90;;;999.90;;
52888;SDS011;41413;52.770;6.892;2023-09-08T06:16:15;1999.90;;;999.90;;
52888;SDS011;41413;52.770;6.892;2023-09-08T06:18:42;1999.90;;;999.90;;
52888;SDS011;41413;52.770;6.892;2023-09-08T06:21:10;1999.90;;;999.90;;
52888;SDS011;41413;52.770;6.892;2023-09-08T06:23:37;1999.90;;;999.90;;
52888;SDS011;41413;52.770;6.892;2023-09-08T06:26:04;1999.90;;;999.90;;
52888;SDS011;41413;52.770;6.892;2023-09-08T06:28:31;1999.90;;;999.90;;
52888;SDS011;41413;52.770;6.892;2023-09-08T06:30:58;1999.90;;;999.90;;
52888;SDS011;41413;52.770;6.892;2023-09-08T06:33:25;1999.90;;;999.90;;
52888;SDS011;41413;52.770;6.892;2023-09-08T06:35:52;1999.90;;;999.90;;
52888;SDS011;41413;52.770;6.892;2023-09-08T06:38:20;1999.90;;;999.90;;
52888;SDS011;41413;52.770;6.892;2023-09-08T06:40:47;1999.90;;;999.90;;
52888;SDS011;41413;52.770;6.892;2023-09-08T06:43:14;1999.90;;;999.90;;
52888;SDS011;41413;52.770;6.892;2023-09-08T06:45:41;1999.90;;;999.90;;
52888;SDS011;41413;52.770;6.892;2023-09-08T06:48:08;1999.90;;;999.90;;
52888;SDS011;41413;52.770;6.892;2023-09-08T06:50:34;1999.90;;;999.90;;
52888;SDS011;41413;52.770;6.892;2023-09-08T06:53:01;1999.90;;;999.90;;
52888;SDS011;41413;52.770;6.892;2023-09-08T06:55:28;1999.90;;;999.90;;
52888;SDS011;41413;52.770;6.892;2023-09-08T06:57:55;1999.90;;;999.90;;
52888;SDS011;41413;52.770;6.892;2023-09-08T07:00:22;1999.90;;;999.90;;
52888;SDS011;41413;52.770;6.892;2023-09-08T07:02:49;1999.90;;;999.90;;
52888;SDS011;41413;52.770;6.892;2023-09-08T07:05:17;1999.90;;;999.90;;
52888;SDS011;41413;52.770;6.892;2023-09-08T07:07:44;1999.90;;;999.90;;
52888;SDS011;41413;52.770;6.892;2023-09-08T07:10:11;1999.90;;;999.90;;
52888;SDS011;41413;52.770;6.892;2023-09-08T07:12:38;1999.90;;;999.90;;
52888;SDS011;41413;52.770;6.892;2023-09-08T07:15:05;1999.90;;;999.90;;
52888;SDS011;41413;52.770;6.892;2023-09-08T07:17:32;1999.90;;;999.90;;
52888;SDS011;41413;52.770;6.892;2023-09-08T07:19:59;1999.90;;;999.90;;
52888;SDS011;41413;52.770;6.892;2023-09-08T07:22:25;1999.90;;;999.90;;
52888;SDS011;41413;52.770;6.892;2023-09-08T07:24:52;1999.90;;;999.90;;
52888;SDS011;41413;52.770;6.892;2023-09-08T07:27:19;1999.90;;;999.90;;
52888;SDS011;41413;52.770;6.892;2023-09-08T07:29:46;1999.90;;;999.90;;
52888;SDS011;41413;52.770;6.892;2023-09-08T07:32:14;1999.90;;;999.90;;
52888;SDS011;41413;52.770;6.892;2023-09-08T07:34:41;1999.90;;;999.90;;
52888;SDS011;41413;52.770;6.892;2023-09-08T07:37:08;1999.90;;;999.90;;
52888;SDS011;41413;52.770;6.892;2023-09-08T07:39:35;1999.90;;;999.90;;
52888;SDS011;41413;52.770;6.892;2023-09-08T07:42:02;1999.90;;;999.90;;
52888;SDS011;41413;52.770;6.892;2023-09-08T07:44:29;1999.90;;;999.90;;
52888;SDS011;41413;52.770;6.892;2023-09-08T07:46:56;1999.90;;;999.90;;
52888;SDS011;41413;52.770;6.892;2023-09-08T07:49:23;1999.90;;;999.90;;
52888;SDS011;41413;52.770;6.892;2023-09-08T07:51:50;1999.90;;;999.90;;
52888;SDS011;41413;52.770;6.892;2023-09-08T07:54:17;1999.90;;;999.90;;
52888;SDS011;41413;52.770;6.892;2023-09-08T07:56:46;1999.90;;;999.90;;
52888;SDS011;41413;52.770;6.892;2023-09-08T07:59:13;1999.90;;;999.90;;
52888;SDS011;41413;52.770;6.892;2023-09-08T08:01:39;1999.90;;;999.90;;
52888;SDS011;41413;52.770;6.892;2023-09-08T08:04:06;1999.90;;;999.90;;
52888;SDS011;41413;52.770;6.892;2023-09-08T08:06:33;1999.90;;;999.90;;
52888;SDS011;41413;52.770;6.892;2023-09-08T08:09:00;1999.90;;;999.90;;
52888;SDS011;41413;52.770;6.892;2023-09-08T08:11:28;1999.90;;;999.90;;
52888;SDS011;41413;52.770;6.892;2023-09-08T08:13:55;1999.90;;;999.90;;
52888;SDS011;41413;52.770;6.892;2023-09-08T08:16:23;1999.90;;;999.90;;
52888;SDS011;41413;52.770;6.892;2023-09-08T08:18:50;1999.90;;;999.90;;
52888;SDS011;41413;52.770;6.892;2023-09-08T08:21:18;1999.90;;;999.90;;
52888;SDS011;41413;52.770;6.892;2023-09-08T08:23:44;1999.90;;;999.90;;
52888;SDS011;41413;52.770;6.892;2023-09-08T08:26:11;1999.90;;;999.90;;
52888;SDS011;41413;52.770;6.892;2023-09-08T08:28:38;1999.90;;;999.90;;
52888;SDS011;41413;52.770;6.892;2023-09-08T08:31:05;1999.90;;;999.90;;
52888;SDS011;41413;52.770;6.892;2023-09-08T08:33:32;1709.80;;;999.90;;
52888;SDS011;41413;52.770;6.892;2023-09-08T08:35:59;1535.00;;;999.90;;
52888;SDS011;41413;52.770;6.892;2023-09-08T08:38:26;1365.78;;;999.90;;
52888;SDS011;41413;52.770;6.892;2023-09-08T08:40:53;1848.82;;;999.90;;
52888;SDS011;41413;52.770;6.892;2023-09-08T08:43:21;1371.50;;;999.90;;
52888;SDS011;41413;52.770;6.892;2023-09-08T08:45:49;1256.20;;;999.90;;
52888;SDS011;41413;52.770;6.892;2023-09-08T08:48:18;1498.05;;;999.90;;
52888;SDS011;41413;52.770;6.892;2023-09-08T08:50:47;1326.28;;;999.90;;
52888;SDS011;41413;52.770;6.892;2023-09-08T08:53:14;1308.05;;;999.90;;
52888;SDS011;41413;52.770;6.892;2023-09-08T08:55:43;1563.15;;;999.90;;
52888;SDS011;41413;52.770;6.892;2023-09-08T08:58:12;1272.03;;;999.90;;
52888;SDS011;41413;52.770;6.892;2023-09-08T09:00:40;1734.43;;;999.90;;
52888;SDS011;41413;52.770;6.892;2023-09-08T09:03:09;1672.07;;;999.90;;
52888;SDS011;41413;52.770;6.892;2023-09-08T09:05:41;1352.95;;;999.90;;
52888;SDS011;41413;52.770;6.892;2023-09-08T09:08:28;1525.40;;;999.90;;
52888;SDS011;41413;52.770;6.892;2023-09-08T09:10:56;1605.25;;;999.90;;
52888;SDS011;41413;52.770;6.892;2023-09-08T09:13:22;1739.82;;;999.90;;
52888;SDS011;41413;52.770;6.892;2023-09-08T09:15:50;1347.70;;;999.90;;
52888;SDS011;41413;52.770;6.892;2023-09-08T09:18:17;1786.10;;;999.90;;
52888;SDS011;41413;52.770;6.892;2023-09-08T09:20:54;1880.78;;;999.90;;
52888;SDS011;41413;52.770;6.892;2023-09-08T09:23:33;1607.15;;;999.90;;
52888;SDS011;41413;52.770;6.892;2023-09-08T09:26:01;1593.95;;;999.90;;
52888;SDS011;41413;52.770;6.892;2023-09-08T09:28:32;1293.50;;;999.90;;
52888;SDS011;41413;52.770;6.892;2023-09-08T09:30:59;1581.13;;;999.90;;
52888;SDS011;41413;52.770;6.892;2023-09-08T09:33:27;1301.75;;;999.90;;
52888;SDS011;41413;52.770;6.892;2023-09-08T09:35:54;1372.13;;;999.90;;
52888;SDS011;41413;52.770;6.892;2023-09-08T09:38:21;1327.38;;;999.90;;
52888;SDS011;41413;52.770;6.892;2023-09-08T09:40:52;1526.13;;;999.90;;
52888;SDS011;41413;52.770;6.892;2023-09-08T09:43:20;1528.85;;;999.90;;
52888;SDS011;41413;52.770;6.892;2023-09-08T09:45:49;1420.70;;;999.90;;
52888;SDS011;41413;52.770;6.892;2023-09-08T09:48:16;1356.28;;;999.90;;
52888;SDS011;41413;52.770;6.892;2023-09-08T09:50:45;1484.95;;;999.90;;
52888;SDS011;41413;52.770;6.892;2023-09-08T09:53:13;1727.93;;;999.90;;
52888;SDS011;41413;52.770;6.892;2023-09-08T09:55:42;1436.18;;;999.90;;
52888;SDS011;41413;52.770;6.892;2023-09-08T09:58:12;1652.85;;;999.90;;
52888;SDS011;41413;52.770;6.892;2023-09-08T10:00:40;1629.70;;;999.90;;
52888;SDS011;41413;52.770;6.892;2023-09-08T10:03:08;1647.75;;;999.90;;
52888;SDS011;41413;52.770;6.892;2023-09-08T10:05:36;1304.28;;;999.90;;
52888;SDS011;41413;52.770;6.892;2023-09-08T10:08:03;1303.38;;;999.90;;
52888;SDS011;41413;52.770;6.892;2023-09-08T10:10:31;1867.85;;;999.90;;
52888;SDS011;41413;52.770;6.892;2023-09-08T10:13:02;1999.90;;;999.90;;
52888;SDS011;41413;52.770;6.892;2023-09-08T10:15:31;1295.18;;;999.90;;
52888;SDS011;41413;52.770;6.892;2023-09-08T10:17:59;1434.95;;;999.90;;
52888;SDS011;41413;52.770;6.892;2023-09-08T10:20:31;1372.00;;;999.90;;
52888;SDS011;41413;52.770;6.892;2023-09-08T10:23:49;1341.20;;;999.90;;
52888;SDS011;41413;52.770;6.892;2023-09-08T10:25:55;1784.68;;;999.90;;
52888;SDS011;41413;52.770;6.892;2023-09-08T10:28:30;1497.13;;;999.90;;
52888;SDS011;41413;52.770;6.892;2023-09-08T10:30:59;1338.72;;;999.90;;
52888;SDS011;41413;52.770;6.892;2023-09-08T10:33:27;1660.50;;;999.90;;
52888;SDS011;41413;52.770;6.892;2023-09-08T10:35:54;1847.25;;;999.90;;
52888;SDS011;41413;52.770;6.892;2023-09-08T10:38:31;1789.72;;;999.90;;
52888;SDS011;41413;52.770;6.892;2023-09-08T10:43:45;1999.90;;;999.90;;
52888;SDS011;41413;52.770;6.892;2023-09-08T10:46:23;1927.10;;;999.90;;
52888;SDS011;41413;52.770;6.892;2023-09-08T10:48:53;1999.90;;;999.90;;
52888;SDS011;41413;52.770;6.892;2023-09-08T10:51:21;1999.90;;;999.90;;
52888;SDS011;41413;52.770;6.892;2023-09-08T10:53:50;1999.90;;;999.90;;
52888;SDS011;41413;52.770;6.892;2023-09-08T10:56:17;1999.90;;;999.90;;
52888;SDS011;41413;52.770;6.892;2023-09-08T10:58:48;1999.90;;;999.90;;
52888;SDS011;41413;52.770;6.892;2023-09-08T11:01:17;1999.90;;;999.90;;
52888;SDS011;41413;52.770;6.892;2023-09-08T11:03:46;1999.90;;;999.90;;
52888;SDS011;41413;52.770;6.892;2023-09-08T11:06:17;1999.90;;;999.90;;
52888;SDS011;41413;52.770;6.892;2023-09-08T11:08:45;1999.90;;;999.90;;
52888;SDS011;41413;52.770;6.892;2023-09-08T11:11:14;1999.90;;;999.90;;
52888;SDS011;41413;52.770;6.892;2023-09-08T11:13:42;1999.90;;;999.90;;
52888;SDS011;41413;52.770;6.892;2023-09-08T11:16:12;1999.90;;;999.90;;
52888;SDS011;41413;52.770;6.892;2023-09-08T11:18:40;1999.90;;;999.90;;
52888;SDS011;41413;52.770;6.892;2023-09-08T11:21:09;1999.90;;;999.90;;
52888;SDS011;41413;52.770;6.892;2023-09-08T11:23:36;1999.90;;;999.90;;
52888;SDS011;41413;52.770;6.892;2023-09-08T11:26:04;1999.90;;;999.90;;
52888;SDS011;41413;52.770;6.892;2023-09-08T11:28:32;1999.90;;;999.90;;
52888;SDS011;41413;52.770;6.892;2023-09-08T11:31:00;1999.90;;;999.90;;
52888;SDS011;41413;52.770;6.892;2023-09-08T11:33:32;1999.90;;;999.90;;
52888;SDS011;41413;52.770;6.892;2023-09-08T11:36:15;1999.90;;;999.90;;
52888;SDS011;41413;52.770;6.892;2023-09-08T11:38:45;1999.90;;;999.90;;
52888;SDS011;41413;52.770;6.892;2023-09-08T11:41:12;1999.90;;;999.90;;
52888;SDS011;41413;52.770;6.892;2023-09-08T11:43:39;1999.90;;;999.90;;
52888;SDS011;41413;52.770;6.892;2023-09-08T11:46:06;1999.90;;;999.90;;
52888;SDS011;41413;52.770;6.892;2023-09-08T11:48:34;1999.90;;;999.90;;
52888;SDS011;41413;52.770;6.892;2023-09-08T11:51:02;1999.90;;;999.90;;
52888;SDS011;41413;52.770;6.892;2023-09-08T11:53:28;1999.90;;;999.90;;
52888;SDS011;41413;52.770;6.892;2023-09-08T11:55:56;1999.90;;;999.90;;
52888;SDS011;41413;52.770;6.892;2023-09-08T11:58:23;1999.90;;;999.90;;
52888;SDS011;41413;52.770;6.892;2023-09-08T12:00:50;1999.90;;;999.90;;
52888;SDS011;41413;52.770;6.892;2023-09-08T12:03:17;1999.90;;;999.90;;
52888;SDS011;41413;52.770;6.892;2023-09-08T12:05:44;1999.90;;;999.90;;
52888;SDS011;41413;52.770;6.892;2023-09-08T12:08:17;1999.90;;;999.90;;
52888;SDS011;41413;52.770;6.892;2023-09-08T12:10:44;1999.90;;;999.90;;
52888;SDS011;41413;52.770;6.892;2023-09-08T12:13:11;1999.90;;;999.90;;
52888;SDS011;41413;52.770;6.892;2023-09-08T12:15:40;1999.90;;;999.90;;
52888;SDS011;41413;52.770;6.892;2023-09-08T12:18:09;1999.90;;;999.90;;
52888;SDS011;41413;52.770;6.892;2023-09-08T12:20:38;1999.90;;;999.90;;
52888;SDS011;41413;52.770;6.892;2023-09-08T12:23:07;1999.90;;;999.90;;
52888;SDS011;41413;52.770;6.892;2023-09-08T12:25:49;1999.90;;;999.90;;
52888;SDS011;41413;52.770;6.892;2023-09-08T12:30:45;1999.90;;;999.90;;
52888;SDS011;41413;52.770;6.892;2023-09-08T12:33:13;1999.90;;;999.90;;
52888;SDS011;41413;52.770;6.892;2023-09-08T12:35:44;1999.90;;;999.90;;
52888;SDS011;41413;52.770;6.892;2023-09-08T12:38:12;1999.90;;;999.90;;
52888;SDS011;41413;52.770;6.892;2023-09-08T12:40:39;1999.90;;;999.90;;
52888;SDS011;41413;52.770;6.892;2023-09-08T12:43:06;1999.90;;;999.90;;
52888;SDS011;41413;52.770;6.892;2023-09-08T12:45:52;1999.90;;;999.90;;
52888;SDS011;41413;52.770;6.892;2023-09-08T12:48:19;1999.90;;;999.90;;
52888;SDS011;41413;52.770;6.892;2023-09-08T12:50:46;1999.90;;;999.90;;
52888;SDS011;41413;52.770;6.892;2023-09-08T12:53:14;1999.90;;;999.90;;
52888;SDS011;41413;52.770;6.892;2023-09-08T12:55:43;1999.90;;;999.90;;
52888;SDS011;41413;52.770;6.892;2023-09-08T12:58:13;1999.90;;;999.90;;
52888;SDS011;41413;52.770;6.892;2023-09-08T13:00:39;1999.90;;;999.90;;
52888;SDS011;41413;52.770;6.892;2023-09-08T13:03:06;1999.90;;;999.90;;
52888;SDS011;41413;52.770;6.892;2023-09-08T13:05:33;1999.90;;;999.90;;
52888;SDS011;41413;52.770;6.892;2023-09-08T13:08:00;1999.90;;;999.90;;
52888;SDS011;41413;52.770;6.892;2023-09-08T13:10:27;1999.90;;;999.90;;
52888;SDS011;41413;52.770;6.892;2023-09-08T13:12:53;1999.90;;;999.90;;
52888;SDS011;41413;52.770;6.892;2023-09-08T13:15:21;1999.90;;;999.90;;
52888;SDS011;41413;52.770;6.892;2023-09-08T13:17:49;1999.90;;;999.90;;
52888;SDS011;41413;52.770;6.892;2023-09-08T13:20:15;1999.90;;;999.90;;
52888;SDS011;41413;52.770;6.892;2023-09-08T13:22:42;1999.90;;;999.90;;
52888;SDS011;41413;52.770;6.892;2023-09-08T13:25:10;1999.90;;;999.90;;
52888;SDS011;41413;52.770;6.892;2023-09-08T13:27:37;1999.90;;;999.90;;
52888;SDS011;41413;52.770;6.892;2023-09-08T13:30:13;1999.90;;;999.90;;
52888;SDS011;41413;52.770;6.892;2023-09-08T13:32:40;1999.90;;;999.90;;
52888;SDS011;41413;52.770;6.892;2023-09-08T13:35:09;1999.90;;;999.90;;
52888;SDS011;41413;52.770;6.892;2023-09-08T13:37:36;1999.90;;;999.90;;
52888;SDS011;41413;52.770;6.892;2023-09-08T13:40:05;1999.90;;;999.90;;
52888;SDS011;41413;52.770;6.892;2023-09-08T13:42:33;1999.90;;;999.90;;
52888;SDS011;41413;52.770;6.892;2023-09-08T13:45:00;1999.90;;;999.90;;
52888;SDS011;41413;52.770;6.892;2023-09-08T13:47:27;1999.90;;;999.90;;
52888;SDS011;41413;52.770;6.892;2023-09-08T13:49:55;1999.90;;;999.90;;
52888;SDS011;41413;52.770;6.892;2023-09-08T13:52:24;1999.90;;;999.90;;
52888;SDS011;41413;52.770;6.892;2023-09-08T13:54:55;1999.90;;;999.90;;
52888;SDS011;41413;52.770;6.892;2023-09-08T13:57:25;1999.90;;;999.90;;